Terminal Aerodrome Forecast
Issued by NWS Wilmington, OH

Home | Current Version | Previous Version | Text Only | Print | Product List | Glossary On
Versions: 1 2 3 4 5 6 7 8 9 10 11 12 13 14 15 16 17
000
FTUS41 KILN 301500 AAB
TAFDAY
TAF AMD
KDAY 301508Z 3015/0112 33006KT 3SM BR VCSH OVC006
     FM302000 35010KT P6SM BKN015
     FM010300 03005KT P6SM SCT250=

USA.gov is the U.S. government's official web portal to all federal, state and local government web resources and services.